KISW/ISW METAR and TAF weather

Enter ICAO airport designator
Station Type Date Time Source
KISW METAR 2023/02/05 13:54 UTC NOAA

KISW 051354Z AUTO 29003KT 5SM BR OVC035 M09/M11 A2983 RMK AO2 SLP117 T10891106


Station Type Date Time Source
KISW Decoded METAR 2023/02/05 13:54 UTC NOAA

WI RAPIDS ALEXANDER FIELD, WI, United States (KISW) 44-22N 89-50W 307M
Feb 05, 2023 - 08:54 AM EST / 2023.02.05 1354 UTC
Wind: from the WNW (290 degrees) at 3 MPH (3 KT):0
Visibility: 5 mile(s):0
Sky conditions: overcast
Weather: mist
Temperature: 16.0 F (-8.9 C)
Dew Point: 12.9 F (-10.6 C)
Relative Humidity: 87%
Pressure (altimeter): 29.83 in. Hg (1010 hPa)
ob: KISW 051354Z AUTO 29003KT 5SM BR OVC035 M09/M11 A2983 RMK AO2 SLP117 T10891106
cycle: 14

Station Type Date Time Source
KISW TAF UTC NOAA

Error!

Example: see airport list